Time,TemperatureF,DewpointF,PressureIn,WindDirection,WindDirectionDegrees,WindSpeedMPH,WindSpeedGustMPH,Humidity,HourlyPrecipIn,Conditions,Clouds,dailyrainin,SolarRadiationWatts/m^2,SoftwareType,DateUTC
2013-05-06 00:01:00,43.0,37.0,-100.00,South,189,28.0,44.0,79,0.00,,,0.00,0.000000,,2013-05-06 07:01:00,
2013-05-06 00:11:00,43.0,37.0,-100.00,South,189,28.0,44.0,79,0.00,,,0.00,0.000000,,2013-05-06 07:11:00,
2013-05-06 00:22:00,43.0,37.0,-100.00,South,189,28.0,44.0,79,0.00,,,0.00,0.000000,,2013-05-06 07:22:00,
2013-05-06 00:52:00,44.0,39.0,-100.00,South,191,25.0,42.0,81,0.00,,,0.00,0.000000,,2013-05-06 07:52:00,
2013-05-06 01:01:00,44.0,39.0,-100.00,South,191,25.0,42.0,81,0.00,,,0.00,0.000000,,2013-05-06 08:01:00,
2013-05-06 01:12:00,44.0,39.0,-100.00,South,191,25.0,42.0,81,0.00,,,0.00,0.000000,,2013-05-06 08:12:00,
2013-05-06 01:22:00,44.0,39.0,-100.00,South,191,25.0,42.0,81,0.00,,,0.00,0.000000,,2013-05-06 08:22:00,
2013-05-06 01:52:00,43.0,38.0,-100.00,SSW,208,16.0,35.0,82,0.00,,,0.00,0.000000,,2013-05-06 08:52:00,
2013-05-06 02:01:00,43.0,38.0,-100.00,SSW,208,16.0,35.0,82,0.00,,,0.00,0.000000,,2013-05-06 09:01:00,
2013-05-06 02:11:00,43.0,38.0,-100.00,SSW,208,16.0,35.0,82,0.00,,,0.00,0.000000,,2013-05-06 09:11:00,
2013-05-06 02:22:00,43.0,38.0,-100.00,SSW,208,16.0,35.0,82,0.00,,,0.00,0.000000,,2013-05-06 09:22:00,
2013-05-06 02:53:00,42.0,39.0,-100.00,South,184,17.0,33.0,89,0.00,,,0.00,0.000000,,2013-05-06 09:53:00,
2013-05-06 03:02:00,42.0,39.0,-100.00,South,184,17.0,33.0,89,0.00,,,0.00,0.000000,,2013-05-06 10:02:00,
2013-05-06 03:12:00,42.0,39.0,-100.00,South,184,17.0,33.0,89,0.00,,,0.00,0.000000,,2013-05-06 10:12:00,
2013-05-06 03:22:00,42.0,39.0,-100.00,South,184,17.0,33.0,89,0.00,,,0.00,0.000000,,2013-05-06 10:22:00,
2013-05-06 03:52:00,42.0,38.0,-100.00,SSW,196,19.0,38.0,85,0.00,,,0.00,0.000000,,2013-05-06 10:52:00,
2013-05-06 04:02:00,42.0,38.0,-100.00,SSW,196,19.0,38.0,85,0.00,,,0.00,0.000000,,2013-05-06 11:02:00,
2013-05-06 04:12:00,42.0,38.0,-100.00,SSW,196,19.0,38.0,85,0.00,,,0.00,0.000000,,2013-05-06 11:12:00,
2013-05-06 04:22:00,42.0,38.0,-100.00,SSW,196,19.0,38.0,85,0.00,,,0.00,0.000000,,2013-05-06 11:22:00,
2013-05-06 04:52:00,43.0,39.0,-100.00,SW,217,16.0,26.0,86,0.00,,,0.00,0.000000,,2013-05-06 11:52:00,
2013-05-06 05:01:00,43.0,39.0,-100.00,SW,217,16.0,26.0,86,0.00,,,0.00,0.000000,,2013-05-06 12:01:00,
2013-05-06 05:12:00,43.0,39.0,-100.00,SW,217,16.0,26.0,86,0.00,,,0.00,0.000000,,2013-05-06 12:12:00,
2013-05-06 05:21:00,43.0,39.0,-100.00,SW,217,16.0,26.0,86,0.00,,,0.00,0.000000,,2013-05-06 12:21:00,
2013-05-06 05:52:00,45.0,38.0,-100.00,SSW,205,16.0,25.0,77,0.00,,,0.00,0.000000,,2013-05-06 12:52:00,
2013-05-06 06:01:00,45.0,38.0,-100.00,SSW,205,16.0,25.0,77,0.00,,,0.00,0.000000,,2013-05-06 13:01:00,
2013-05-06 06:11:00,45.0,38.0,-100.00,SSW,205,16.0,25.0,77,0.00,,,0.00,0.000000,,2013-05-06 13:11:00,
2013-05-06 06:21:00,45.0,38.0,-100.00,SSW,205,16.0,25.0,77,0.00,,,0.00,0.000000,,2013-05-06 13:21:00,
2013-05-06 06:52:00,46.0,40.0,-100.00,SSW,203,15.0,22.0,80,0.00,,,0.00,12.000000,,2013-05-06 13:52:00,
2013-05-06 07:01:00,46.0,40.0,-100.00,SSW,203,15.0,22.0,80,0.00,,,0.00,12.000000,,2013-05-06 14:01:00,
2013-05-06 07:11:00,46.0,40.0,-100.00,SSW,203,15.0,22.0,80,0.00,,,0.00,12.000000,,2013-05-06 14:11:00,
2013-05-06 07:21:00,46.0,40.0,-100.00,SSW,203,15.0,22.0,80,0.00,,,0.00,12.000000,,2013-05-06 14:21:00,
2013-05-06 07:52:00,46.0,40.0,-100.00,SSW,210,13.0,23.0,79,0.00,,,0.00,179.000000,,2013-05-06 14:52:00,
2013-05-06 08:01:00,46.0,40.0,-100.00,SSW,210,13.0,23.0,79,0.00,,,0.00,179.000000,,2013-05-06 15:01:00,
2013-05-06 08:11:00,46.0,40.0,-100.00,SSW,210,13.0,23.0,79,0.00,,,0.00,179.000000,,2013-05-06 15:11:00,
2013-05-06 08:21:00,46.0,40.0,-100.00,SSW,210,13.0,23.0,79,0.00,,,0.00,179.000000,,2013-05-06 15:21:00,
2013-05-06 08:53:00,47.0,42.0,-100.00,SSW,198,12.0,26.0,82,0.00,,,0.00,165.000000,,2013-05-06 15:53:00,
2013-05-06 09:03:00,47.0,42.0,-100.00,SSW,198,12.0,26.0,82,0.00,,,0.00,165.000000,,2013-05-06 16:03:00,
2013-05-06 09:13:00,47.0,42.0,-100.00,SSW,198,12.0,26.0,82,0.00,,,0.00,165.000000,,2013-05-06 16:13:00,
2013-05-06 09:23:00,47.0,42.0,-100.00,SSW,198,12.0,26.0,82,0.00,,,0.00,165.000000,,2013-05-06 16:23:00,
2013-05-06 09:52:00,47.0,44.0,-100.00,SW,219,12.0,20.0,89,0.00,,,0.00,310.000000,,2013-05-06 16:52:00,
2013-05-06 10:02:00,47.0,44.0,-100.00,SW,219,12.0,20.0,89,0.00,,,0.00,310.000000,,2013-05-06 17:02:00,
2013-05-06 10:12:00,47.0,44.0,-100.00,SW,219,12.0,20.0,89,0.00,,,0.00,310.000000,,2013-05-06 17:12:00,
2013-05-06 10:23:00,47.0,44.0,-100.00,SW,219,12.0,20.0,89,0.00,,,0.00,310.000000,,2013-05-06 17:23:00,
2013-05-06 10:52:00,46.0,44.0,-100.00,SW,219,13.0,23.0,94,0.02,,,0.02,416.000000,,2013-05-06 17:52:00,
2013-05-06 11:01:00,46.0,44.0,-100.00,SW,219,13.0,23.0,94,0.02,,,0.02,416.000000,,2013-05-06 18:01:00,
2013-05-06 11:12:00,46.0,44.0,-100.00,SW,219,13.0,23.0,94,0.02,,,0.02,416.000000,,2013-05-06 18:12:00,
2013-05-06 11:21:00,46.0,44.0,-100.00,SW,219,13.0,23.0,94,0.02,,,0.02,416.000000,,2013-05-06 18:21:00,
2013-05-06 11:52:00,46.0,44.0,-100.00,SSW,213,17.0,27.0,92,0.01,,,0.03,582.000000,,2013-05-06 18:52:00,
2013-05-06 12:01:00,46.0,44.0,-100.00,SSW,213,17.0,27.0,92,0.01,,,0.03,582.000000,,2013-05-06 19:01:00,
2013-05-06 12:11:00,46.0,44.0,-100.00,SSW,213,17.0,27.0,92,0.01,,,0.03,582.000000,,2013-05-06 19:11:00,
2013-05-06 12:22:00,46.0,44.0,-100.00,SSW,213,17.0,27.0,92,0.01,,,0.03,582.000000,,2013-05-06 19:22:00,
2013-05-06 12:52:00,52.0,42.0,-100.00,SSW,196,19.0,34.0,68,0.00,,,0.03,1176.000000,,2013-05-06 19:52:00,
2013-05-06 13:01:00,52.0,42.0,-100.00,SSW,196,19.0,34.0,68,0.00,,,0.03,1176.000000,,2013-05-06 20:01:00,
2013-05-06 13:11:00,52.0,42.0,-100.00,SSW,196,19.0,34.0,68,0.00,,,0.03,1176.000000,,2013-05-06 20:11:00,
2013-05-06 13:21:00,52.0,42.0,-100.00,SSW,196,19.0,34.0,68,0.00,,,0.03,1176.000000,,2013-05-06 20:21:00,
2013-05-06 13:52:00,53.0,38.0,-100.00,SSW,195,23.0,35.0,56,0.00,,,0.03,1005.000000,,2013-05-06 20:52:00,
2013-05-06 14:01:00,53.0,38.0,-100.00,SSW,195,23.0,35.0,56,0.00,,,0.03,1005.000000,,2013-05-06 21:01:00,
2013-05-06 14:11:00,53.0,38.0,-100.00,SSW,195,23.0,35.0,56,0.00,,,0.03,1005.000000,,2013-05-06 21:11:00,
2013-05-06 14:21:00,53.0,38.0,-100.00,SSW,195,23.0,35.0,56,0.00,,,0.03,1005.000000,,2013-05-06 21:21:00,
2013-05-06 14:53:00,54.0,39.0,-100.00,SSW,209,20.0,34.0,56,0.00,,,0.03,883.000000,,2013-05-06 21:53:00,
2013-05-06 15:03:00,54.0,39.0,-100.00,SSW,209,20.0,34.0,56,0.00,,,0.03,883.000000,,2013-05-06 22:03:00,
2013-05-06 15:12:00,54.0,39.0,-100.00,SSW,209,20.0,34.0,56,0.00,,,0.03,883.000000,,2013-05-06 22:12:00,
2013-05-06 15:22:00,54.0,39.0,-100.00,SSW,209,20.0,34.0,56,0.00,,,0.03,883.000000,,2013-05-06 22:22:00,
2013-05-06 15:52:00,54.0,36.0,-100.00,SSW,212,22.0,34.0,50,0.00,,,0.03,809.000000,,2013-05-06 22:52:00,
2013-05-06 16:02:00,54.0,36.0,-100.00,SSW,212,22.0,34.0,50,0.00,,,0.03,809.000000,,2013-05-06 23:02:00,
2013-05-06 16:12:00,54.0,36.0,-100.00,SSW,212,22.0,34.0,50,0.00,,,0.03,809.000000,,2013-05-06 23:12:00,
2013-05-06 16:22:00,54.0,36.0,-100.00,SSW,212,22.0,34.0,50,0.00,,,0.03,809.000000,,2013-05-06 23:22:00,
2013-05-06 16:52:00,57.0,31.0,-100.00,SSW,196,21.0,36.0,37,0.00,,,0.03,852.000000,,2013-05-06 23:52:00,
2013-05-06 17:01:00,57.0,31.0,-100.00,SSW,196,21.0,36.0,37,0.00,,,0.03,852.000000,,2013-05-07 00:01:00,
2013-05-06 17:11:00,57.0,31.0,-100.00,SSW,196,21.0,36.0,37,0.00,,,0.03,852.000000,,2013-05-07 00:11:00,
2013-05-06 17:21:00,57.0,31.0,-100.00,SSW,196,21.0,36.0,37,0.00,,,0.03,852.000000,,2013-05-07 00:21:00,
2013-05-06 17:52:00,54.0,33.0,-100.00,SSW,196,26.0,37.0,44,0.00,,,0.03,639.000000,,2013-05-07 00:52:00,
2013-05-06 18:01:00,54.0,33.0,-100.00,SSW,196,26.0,37.0,44,0.00,,,0.03,639.000000,,2013-05-07 01:01:00,
2013-05-06 18:11:00,54.0,33.0,-100.00,SSW,196,26.0,37.0,44,0.00,,,0.03,639.000000,,2013-05-07 01:11:00,
2013-05-06 18:21:00,54.0,33.0,-100.00,SSW,196,26.0,37.0,44,0.00,,,0.03,639.000000,,2013-05-07 01:21:00,
2013-05-06 18:53:00,53.0,33.0,-100.00,SSW,192,22.0,34.0,46,0.00,,,0.03,384.000000,,2013-05-07 01:53:00,
2013-05-06 19:02:00,53.0,33.0,-100.00,SSW,192,22.0,34.0,46,0.00,,,0.03,384.000000,,2013-05-07 02:02:00,
2013-05-06 19:11:00,53.0,33.0,-100.00,SSW,192,22.0,34.0,46,0.00,,,0.03,384.000000,,2013-05-07 02:11:00,
2013-05-06 19:21:00,53.0,33.0,-100.00,SSW,192,22.0,34.0,46,0.00,,,0.03,384.000000,,2013-05-07 02:21:00,
2013-05-06 19:52:00,50.0,34.0,-100.00,SSW,198,19.0,33.0,53,0.00,,,0.03,87.000000,,2013-05-07 02:52:00,
2013-05-06 20:01:00,50.0,34.0,-100.00,SSW,198,19.0,33.0,53,0.00,,,0.03,87.000000,,2013-05-07 03:01:00,
2013-05-06 20:11:00,50.0,34.0,-100.00,SSW,198,19.0,33.0,53,0.00,,,0.03,87.000000,,2013-05-07 03:11:00,
2013-05-06 20:21:00,50.0,34.0,-100.00,SSW,198,19.0,33.0,53,0.00,,,0.03,87.000000,,2013-05-07 03:21:00,
2013-05-06 20:53:00,48.0,38.0,-100.00,SSW,199,20.0,36.0,67,0.00,,,0.03,2.000000,,2013-05-07 03:53:00,
2013-05-06 21:02:00,48.0,38.0,-100.00,SSW,199,20.0,36.0,67,0.00,,,0.03,2.000000,,2013-05-07 04:02:00,
2013-05-06 21:12:00,48.0,38.0,-100.00,SSW,199,20.0,36.0,67,0.00,,,0.03,2.000000,,2013-05-07 04:12:00,
2013-05-06 21:23:00,48.0,38.0,-100.00,SSW,199,20.0,36.0,67,0.00,,,0.03,2.000000,,2013-05-07 04:23:00,
2013-05-06 21:53:00,45.0,37.0,-100.00,SSW,203,23.0,34.0,74,0.00,,,0.03,0.000000,,2013-05-07 04:53:00,
2013-05-06 22:02:00,45.0,37.0,-100.00,SSW,203,23.0,34.0,74,0.00,,,0.03,0.000000,,2013-05-07 05:02:00,
2013-05-06 22:12:00,45.0,37.0,-100.00,SSW,203,23.0,34.0,74,0.00,,,0.03,0.000000,,2013-05-07 05:12:00,
2013-05-06 22:22:00,45.0,37.0,-100.00,SSW,203,23.0,34.0,74,0.00,,,0.03,0.000000,,2013-05-07 05:22:00,
2013-05-06 22:52:00,46.0,39.0,-100.00,SSW,202,19.0,31.0,75,0.00,,,0.03,0.000000,,2013-05-07 05:52:00,
2013-05-06 23:02:00,46.0,39.0,-100.00,SSW,202,19.0,31.0,75,0.00,,,0.03,0.000000,,2013-05-07 06:02:00,
2013-05-06 23:12:00,46.0,39.0,-100.00,SSW,202,19.0,31.0,75,0.00,,,0.03,0.000000,,2013-05-07 06:12:00,
2013-05-06 23:21:00,46.0,39.0,-100.00,SSW,202,19.0,31.0,75,0.00,,,0.03,0.000000,,2013-05-07 06:21:00,
2013-05-06 23:52:00,45.0,37.0,-100.00,SSW,208,20.0,28.0,74,0.00,,,0.03,0.000000,,2013-05-07 06:52:00,